sensor_id;sensor_type;location;lat;lon;timestamp;temperature;humidity
5743;DHT22;2896;53.500;10.020;2023-05-19T00:02:01;6.80;99.90
5743;DHT22;2896;53.500;10.020;2023-05-19T00:04:30;6.80;99.90
5743;DHT22;2896;53.500;10.020;2023-05-19T00:06:59;7.00;99.90
5743;DHT22;2896;53.500;10.020;2023-05-19T00:09:27;7.00;99.90
5743;DHT22;2896;53.500;10.020;2023-05-19T00:11:54;7.00;99.90
5743;DHT22;2896;53.500;10.020;2023-05-19T00:14:22;7.00;99.90
5743;DHT22;2896;53.500;10.020;2023-05-19T00:16:49;7.00;99.90
5743;DHT22;2896;53.500;10.020;2023-05-19T00:19:16;8.40;99.90
5743;DHT22;2896;53.500;10.020;2023-05-19T00:21:43;7.00;99.90
5743;DHT22;2896;53.500;10.020;2023-05-19T00:24:11;7.00;99.90
5743;DHT22;2896;53.500;10.020;2023-05-19T00:26:37;7.00;99.90
5743;DHT22;2896;53.500;10.020;2023-05-19T00:29:04;6.90;99.90
5743;DHT22;2896;53.500;10.020;2023-05-19T00:31:31;6.90;99.90
5743;DHT22;2896;53.500;10.020;2023-05-19T00:33:59;6.90;99.90
5743;DHT22;2896;53.500;10.020;2023-05-19T00:36:26;6.90;99.90
5743;DHT22;2896;53.500;10.020;2023-05-19T00:38:53;6.90;99.90
5743;DHT22;2896;53.500;10.020;2023-05-19T00:41:21;6.80;99.90
5743;DHT22;2896;53.500;10.020;2023-05-19T00:43:48;6.80;99.90
5743;DHT22;2896;53.500;10.020;2023-05-19T00:46:16;6.70;99.90
5743;DHT22;2896;53.500;10.020;2023-05-19T00:48:43;6.70;99.90
5743;DHT22;2896;53.500;10.020;2023-05-19T00:51:11;4.40;99.90
5743;DHT22;2896;53.500;10.020;2023-05-19T00:53:40;6.70;99.90
5743;DHT22;2896;53.500;10.020;2023-05-19T00:56:08;6.70;99.90
5743;DHT22;2896;53.500;10.020;2023-05-19T00:58:36;6.70;99.90
5743;DHT22;2896;53.500;10.020;2023-05-19T01:01:03;6.60;99.90
5743;DHT22;2896;53.500;10.020;2023-05-19T01:03:33;6.60;99.90
5743;DHT22;2896;53.500;10.020;2023-05-19T01:06:00;6.60;99.90
5743;DHT22;2896;53.500;10.020;2023-05-19T01:08:30;6.60;99.90
5743;DHT22;2896;53.500;10.020;2023-05-19T01:10:57;6.60;99.90
5743;DHT22;2896;53.500;10.020;2023-05-19T01:13:24;6.60;99.90
5743;DHT22;2896;53.500;10.020;2023-05-19T01:15:58;6.60;99.90
5743;DHT22;2896;53.500;10.020;2023-05-19T01:18:34;6.60;99.90
5743;DHT22;2896;53.500;10.020;2023-05-19T01:21:15;6.50;99.90
5743;DHT22;2896;53.500;10.020;2023-05-19T01:23:52;6.50;99.90
5743;DHT22;2896;53.500;10.020;2023-05-19T01:26:44;6.50;99.90
5743;DHT22;2896;53.500;10.020;2023-05-19T01:29:28;6.50;99.90
5743;DHT22;2896;53.500;10.020;2023-05-19T01:32:00;6.50;99.90
5743;DHT22;2896;53.500;10.020;2023-05-19T01:34:28;6.50;1.00
5743;DHT22;2896;53.500;10.020;2023-05-19T01:36:57;6.50;1.00
5743;DHT22;2896;53.500;10.020;2023-05-19T01:39:25;6.50;1.00
5743;DHT22;2896;53.500;10.020;2023-05-19T01:41:53;6.60;1.00
5743;DHT22;2896;53.500;10.020;2023-05-19T01:44:21;6.70;1.00
5743;DHT22;2896;53.500;10.020;2023-05-19T01:46:48;6.70;1.00
5743;DHT22;2896;53.500;10.020;2023-05-19T01:49:16;6.60;99.90
5743;DHT22;2896;53.500;10.020;2023-05-19T01:51:43;6.70;1.00
5743;DHT22;2896;53.500;10.020;2023-05-19T01:54:10;6.70;99.90
5743;DHT22;2896;53.500;10.020;2023-05-19T01:56:41;6.80;99.90
5743;DHT22;2896;53.500;10.020;2023-05-19T01:59:19;6.80;99.90
5743;DHT22;2896;53.500;10.020;2023-05-19T02:01:51;6.80;99.90
5743;DHT22;2896;53.500;10.020;2023-05-19T02:04:35;6.80;99.90
5743;DHT22;2896;53.500;10.020;2023-05-19T02:07:11;6.70;99.90
5743;DHT22;2896;53.500;10.020;2023-05-19T02:09:49;6.70;99.90
5743;DHT22;2896;53.500;10.020;2023-05-19T02:12:22;6.70;99.90
5743;DHT22;2896;53.500;10.020;2023-05-19T02:14:52;6.70;99.90
5743;DHT22;2896;53.500;10.020;2023-05-19T02:17:22;6.70;99.90
5743;DHT22;2896;53.500;10.020;2023-05-19T02:19:53;6.70;99.90
5743;DHT22;2896;53.500;10.020;2023-05-19T02:22:20;6.70;99.90
5743;DHT22;2896;53.500;10.020;2023-05-19T02:24:46;6.70;99.90
5743;DHT22;2896;53.500;10.020;2023-05-19T02:27:15;6.80;99.90
5743;DHT22;2896;53.500;10.020;2023-05-19T02:29:42;6.80;1.00
5743;DHT22;2896;53.500;10.020;2023-05-19T02:32:10;6.80;1.00
5743;DHT22;2896;53.500;10.020;2023-05-19T02:34:36;6.80;1.00
5743;DHT22;2896;53.500;10.020;2023-05-19T02:37:04;6.80;1.00
5743;DHT22;2896;53.500;10.020;2023-05-19T02:39:32;6.90;1.00
5743;DHT22;2896;53.500;10.020;2023-05-19T02:41:59;6.80;1.00
5743;DHT22;2896;53.500;10.020;2023-05-19T02:44:26;6.90;1.00
5743;DHT22;2896;53.500;10.020;2023-05-19T02:46:52;6.90;1.00
5743;DHT22;2896;53.500;10.020;2023-05-19T02:49:19;6.90;1.00
5743;DHT22;2896;53.500;10.020;2023-05-19T02:51:46;6.90;1.00
5743;DHT22;2896;53.500;10.020;2023-05-19T02:54:14;6.90;1.00
5743;DHT22;2896;53.500;10.020;2023-05-19T02:56:40;6.90;1.00
5743;DHT22;2896;53.500;10.020;2023-05-19T02:59:07;7.00;1.00
5743;DHT22;2896;53.500;10.020;2023-05-19T03:01:34;6.90;1.00
5743;DHT22;2896;53.500;10.020;2023-05-19T03:04:01;7.00;1.00
5743;DHT22;2896;53.500;10.020;2023-05-19T03:06:28;7.00;1.00
5743;DHT22;2896;53.500;10.020;2023-05-19T03:08:57;7.10;1.00
5743;DHT22;2896;53.500;10.020;2023-05-19T03:11:25;7.10;1.00
5743;DHT22;2896;53.500;10.020;2023-05-19T03:13:51;7.00;1.00
5743;DHT22;2896;53.500;10.020;2023-05-19T03:16:18;7.10;1.00
5743;DHT22;2896;53.500;10.020;2023-05-19T03:18:46;7.10;1.00
5743;DHT22;2896;53.500;10.020;2023-05-19T03:21:12;7.10;1.00
5743;DHT22;2896;53.500;10.020;2023-05-19T03:23:39;7.10;1.00
5743;DHT22;2896;53.500;10.020;2023-05-19T03:26:06;7.10;1.00
5743;DHT22;2896;53.500;10.020;2023-05-19T03:28:34;7.10;1.00
5743;DHT22;2896;53.500;10.020;2023-05-19T03:31:00;7.10;1.00
5743;DHT22;2896;53.500;10.020;2023-05-19T03:33:27;7.10;1.00
5743;DHT22;2896;53.500;10.020;2023-05-19T03:35:55;7.20;1.00
5743;DHT22;2896;53.500;10.020;2023-05-19T03:38:22;7.20;1.00
5743;DHT22;2896;53.500;10.020;2023-05-19T03:40:49;7.30;1.00
5743;DHT22;2896;53.500;10.020;2023-05-19T03:43:15;7.30;1.00
5743;DHT22;2896;53.500;10.020;2023-05-19T03:45:43;7.30;1.00
5743;DHT22;2896;53.500;10.020;2023-05-19T03:48:10;7.40;1.00
5743;DHT22;2896;53.500;10.020;2023-05-19T03:50:37;7.40;1.00
5743;DHT22;2896;53.500;10.020;2023-05-19T03:53:03;7.40;1.00
5743;DHT22;2896;53.500;10.020;2023-05-19T03:55:30;7.50;1.00
5743;DHT22;2896;53.500;10.020;2023-05-19T03:57:57;7.50;1.00
5743;DHT22;2896;53.500;10.020;2023-05-19T04:00:23;7.60;1.00
5743;DHT22;2896;53.500;10.020;2023-05-19T04:02:51;7.60;1.00
5743;DHT22;2896;53.500;10.020;2023-05-19T04:05:18;7.70;1.00
5743;DHT22;2896;53.500;10.020;2023-05-19T04:07:45;7.70;1.00
5743;DHT22;2896;53.500;10.020;2023-05-19T04:10:12;7.80;1.00
5743;DHT22;2896;53.500;10.020;2023-05-19T04:12:39;7.80;1.00
5743;DHT22;2896;53.500;10.020;2023-05-19T04:15:06;7.80;1.00
5743;DHT22;2896;53.500;10.020;2023-05-19T04:17:35;7.90;1.00
5743;DHT22;2896;53.500;10.020;2023-05-19T04:20:04;8.00;1.00
5743;DHT22;2896;53.500;10.020;2023-05-19T04:22:31;8.00;1.00
5743;DHT22;2896;53.500;10.020;2023-05-19T04:24:58;8.00;1.00
5743;DHT22;2896;53.500;10.020;2023-05-19T04:27:25;8.10;1.00
5743;DHT22;2896;53.500;10.020;2023-05-19T04:29:52;8.90;1.00
5743;DHT22;2896;53.500;10.020;2023-05-19T04:32:19;8.20;1.00
5743;DHT22;2896;53.500;10.020;2023-05-19T04:34:47;8.30;1.00
5743;DHT22;2896;53.500;10.020;2023-05-19T04:37:14;8.40;1.00
5743;DHT22;2896;53.500;10.020;2023-05-19T04:39:41;8.50;99.90
5743;DHT22;2896;53.500;10.020;2023-05-19T04:42:09;8.50;99.90
5743;DHT22;2896;53.500;10.020;2023-05-19T04:44:36;8.50;99.90
5743;DHT22;2896;53.500;10.020;2023-05-19T04:47:05;8.60;99.90
5743;DHT22;2896;53.500;10.020;2023-05-19T04:49:33;8.70;99.90
5743;DHT22;2896;53.500;10.020;2023-05-19T04:52:04;8.70;99.90
5743;DHT22;2896;53.500;10.020;2023-05-19T04:54:33;8.80;99.90
5743;DHT22;2896;53.500;10.020;2023-05-19T04:57:00;8.90;99.90
5743;DHT22;2896;53.500;10.020;2023-05-19T04:59:26;8.90;99.90
5743;DHT22;2896;53.500;10.020;2023-05-19T05:01:53;9.00;99.90
5743;DHT22;2896;53.500;10.020;2023-05-19T05:04:20;9.00;99.90
5743;DHT22;2896;53.500;10.020;2023-05-19T05:06:47;9.00;99.90
5743;DHT22;2896;53.500;10.020;2023-05-19T05:09:14;8.90;99.90
5743;DHT22;2896;53.500;10.020;2023-05-19T05:11:42;9.10;99.90
5743;DHT22;2896;53.500;10.020;2023-05-19T05:14:09;9.20;99.90
5743;DHT22;2896;53.500;10.020;2023-05-19T05:16:37;9.30;99.90
5743;DHT22;2896;53.500;10.020;2023-05-19T05:19:04;9.50;99.90
5743;DHT22;2896;53.500;10.020;2023-05-19T05:21:31;9.70;99.90
5743;DHT22;2896;53.500;10.020;2023-05-19T05:23:58;9.60;99.90
5743;DHT22;2896;53.500;10.020;2023-05-19T05:26:29;9.70;99.90
5743;DHT22;2896;53.500;10.020;2023-05-19T05:28:57;9.80;99.90
5743;DHT22;2896;53.500;10.020;2023-05-19T05:31:23;9.80;99.90
5743;DHT22;2896;53.500;10.020;2023-05-19T05:33:50;9.60;99.90
5743;DHT22;2896;53.500;10.020;2023-05-19T05:36:17;9.80;99.90
5743;DHT22;2896;53.500;10.020;2023-05-19T05:38:43;9.80;99.90
5743;DHT22;2896;53.500;10.020;2023-05-19T05:41:10;10.10;99.90
5743;DHT22;2896;53.500;10.020;2023-05-19T05:43:37;10.10;99.90
5743;DHT22;2896;53.500;10.020;2023-05-19T05:46:05;10.10;99.90
5743;DHT22;2896;53.500;10.020;2023-05-19T05:48:32;10.20;99.90
5743;DHT22;2896;53.500;10.020;2023-05-19T05:50:59;10.50;99.90
5743;DHT22;2896;53.500;10.020;2023-05-19T05:53:29;10.80;99.90
5743;DHT22;2896;53.500;10.020;2023-05-19T05:55:56;11.00;99.90
5743;DHT22;2896;53.500;10.020;2023-05-19T05:58:23;11.10;99.90
5743;DHT22;2896;53.500;10.020;2023-05-19T06:00:51;11.00;99.90
5743;DHT22;2896;53.500;10.020;2023-05-19T06:03:20;11.10;99.90
5743;DHT22;2896;53.500;10.020;2023-05-19T06:05:48;11.20;99.90
5743;DHT22;2896;53.500;10.020;2023-05-19T06:08:15;11.30;99.90
5743;DHT22;2896;53.500;10.020;2023-05-19T06:10:42;11.30;99.90
5743;DHT22;2896;53.500;10.020;2023-05-19T06:13:08;11.40;99.90
5743;DHT22;2896;53.500;10.020;2023-05-19T06:15:35;11.50;99.90
5743;DHT22;2896;53.500;10.020;2023-05-19T06:18:02;11.40;99.90
5743;DHT22;2896;53.500;10.020;2023-05-19T06:20:30;11.50;99.90
5743;DHT22;2896;53.500;10.020;2023-05-19T06:22:56;11.70;99.90
5743;DHT22;2896;53.500;10.020;2023-05-19T06:25:23;11.90;99.90
5743;DHT22;2896;53.500;10.020;2023-05-19T06:27:50;11.90;99.90
5743;DHT22;2896;53.500;10.020;2023-05-19T06:30:16;12.00;99.90
5743;DHT22;2896;53.500;10.020;2023-05-19T06:32:43;12.10;99.90
5743;DHT22;2896;53.500;10.020;2023-05-19T06:35:10;12.10;99.90
5743;DHT22;2896;53.500;10.020;2023-05-19T06:37:38;12.10;99.90
5743;DHT22;2896;53.500;10.020;2023-05-19T06:40:06;12.30;99.90
5743;DHT22;2896;53.500;10.020;2023-05-19T06:42:33;12.50;99.90
5743;DHT22;2896;53.500;10.020;2023-05-19T06:45:00;12.60;99.90
5743;DHT22;2896;53.500;10.020;2023-05-19T06:47:26;12.70;99.90
5743;DHT22;2896;53.500;10.020;2023-05-19T06:49:53;12.90;99.90
5743;DHT22;2896;53.500;10.020;2023-05-19T06:52:20;13.00;99.90
5743;DHT22;2896;53.500;10.020;2023-05-19T06:54:48;13.40;99.90
5743;DHT22;2896;53.500;10.020;2023-05-19T06:57:15;12.70;99.90
5743;DHT22;2896;53.500;10.020;2023-05-19T06:59:41;12.80;99.90
5743;DHT22;2896;53.500;10.020;2023-05-19T07:02:10;13.10;99.90
5743;DHT22;2896;53.500;10.020;2023-05-19T07:04:37;13.20;99.90
5743;DHT22;2896;53.500;10.020;2023-05-19T07:07:04;13.20;99.90
5743;DHT22;2896;53.500;10.020;2023-05-19T07:09:31;13.20;99.90
5743;DHT22;2896;53.500;10.020;2023-05-19T07:11:59;13.20;99.90
5743;DHT22;2896;53.500;10.020;2023-05-19T07:14:25;13.50;99.90
5743;DHT22;2896;53.500;10.020;2023-05-19T07:16:52;13.20;99.90
5743;DHT22;2896;53.500;10.020;2023-05-19T07:19:19;13.50;99.90
5743;DHT22;2896;53.500;10.020;2023-05-19T07:21:45;13.80;99.90
5743;DHT22;2896;53.500;10.020;2023-05-19T07:24:12;13.70;99.90
5743;DHT22;2896;53.500;10.020;2023-05-19T07:26:39;13.50;99.90
5743;DHT22;2896;53.500;10.020;2023-05-19T07:29:08;13.60;99.90
5743;DHT22;2896;53.500;10.020;2023-05-19T07:31:34;13.70;99.90
5743;DHT22;2896;53.500;10.020;2023-05-19T07:34:01;14.00;99.90
5743;DHT22;2896;53.500;10.020;2023-05-19T07:36:28;13.90;99.90
5743;DHT22;2896;53.500;10.020;2023-05-19T07:38:55;13.90;99.90
5743;DHT22;2896;53.500;10.020;2023-05-19T07:41:22;14.30;99.90
5743;DHT22;2896;53.500;10.020;2023-05-19T07:43:48;14.80;99.90
5743;DHT22;2896;53.500;10.020;2023-05-19T07:46:16;15.10;99.90
5743;DHT22;2896;53.500;10.020;2023-05-19T07:48:43;15.30;99.90
5743;DHT22;2896;53.500;10.020;2023-05-19T07:51:11;15.40;99.90
5743;DHT22;2896;53.500;10.020;2023-05-19T07:53:38;15.60;99.90
5743;DHT22;2896;53.500;10.020;2023-05-19T07:56:04;15.40;99.90
5743;DHT22;2896;53.500;10.020;2023-05-19T07:58:31;15.50;99.90
5743;DHT22;2896;53.500;10.020;2023-05-19T08:00:58;15.60;99.90
5743;DHT22;2896;53.500;10.020;2023-05-19T08:03:26;15.60;99.90
5743;DHT22;2896;53.500;10.020;2023-05-19T08:05:53;15.80;99.90
5743;DHT22;2896;53.500;10.020;2023-05-19T08:08:19;16.20;99.90
5743;DHT22;2896;53.500;10.020;2023-05-19T08:10:46;16.40;99.90
5743;DHT22;2896;53.500;10.020;2023-05-19T08:13:12;16.70;99.90
5743;DHT22;2896;53.500;10.020;2023-05-19T08:15:39;16.70;99.90
5743;DHT22;2896;53.500;10.020;2023-05-19T08:18:07;16.90;99.90
5743;DHT22;2896;53.500;10.020;2023-05-19T08:20:34;16.70;99.90
5743;DHT22;2896;53.500;10.020;2023-05-19T08:23:01;17.00;99.90
5743;DHT22;2896;53.500;10.020;2023-05-19T08:25:28;17.10;99.90
5743;DHT22;2896;53.500;10.020;2023-05-19T08:27:55;17.40;99.90
5743;DHT22;2896;53.500;10.020;2023-05-19T08:30:21;17.20;99.90
5743;DHT22;2896;53.500;10.020;2023-05-19T08:32:48;17.30;99.90
5743;DHT22;2896;53.500;10.020;2023-05-19T08:35:15;17.40;99.90
5743;DHT22;2896;53.500;10.020;2023-05-19T08:37:43;17.80;99.90
5743;DHT22;2896;53.500;10.020;2023-05-19T08:40:13;17.30;99.90
5743;DHT22;2896;53.500;10.020;2023-05-19T08:42:41;18.10;99.90
5743;DHT22;2896;53.500;10.020;2023-05-19T08:45:08;18.70;99.90
5743;DHT22;2896;53.500;10.020;2023-05-19T08:47:35;18.40;99.90
5743;DHT22;2896;53.500;10.020;2023-05-19T08:50:04;18.00;99.90
5743;DHT22;2896;53.500;10.020;2023-05-19T08:52:40;18.90;99.90
5743;DHT22;2896;53.500;10.020;2023-05-19T08:55:18;19.30;99.90
5743;DHT22;2896;53.500;10.020;2023-05-19T08:57:50;19.50;99.90
5743;DHT22;2896;53.500;10.020;2023-05-19T09:00:18;19.90;99.90
5743;DHT22;2896;53.500;10.020;2023-05-19T09:02:46;19.50;99.90
5743;DHT22;2896;53.500;10.020;2023-05-19T09:05:14;19.90;99.90
5743;DHT22;2896;53.500;10.020;2023-05-19T09:07:42;19.70;99.90
5743;DHT22;2896;53.500;10.020;2023-05-19T09:10:09;19.90;99.90
5743;DHT22;2896;53.500;10.020;2023-05-19T09:12:40;19.90;99.90
5743;DHT22;2896;53.500;10.020;2023-05-19T09:15:10;20.10;99.90
5743;DHT22;2896;53.500;10.020;2023-05-19T09:17:37;20.30;99.90
5743;DHT22;2896;53.500;10.020;2023-05-19T09:20:05;20.00;99.90
5743;DHT22;2896;53.500;10.020;2023-05-19T09:22:40;20.30;99.90
5743;DHT22;2896;53.500;10.020;2023-05-19T09:25:16;19.70;99.90
5743;DHT22;2896;53.500;10.020;2023-05-19T09:27:45;19.60;99.90
5743;DHT22;2896;53.500;10.020;2023-05-19T09:30:13;19.80;99.90
5743;DHT22;2896;53.500;10.020;2023-05-19T09:32:40;19.30;99.90
5743;DHT22;2896;53.500;10.020;2023-05-19T09:35:07;19.00;99.90
5743;DHT22;2896;53.500;10.020;2023-05-19T09:37:37;18.50;99.90
5743;DHT22;2896;53.500;10.020;2023-05-19T09:40:05;19.20;99.90
5743;DHT22;2896;53.500;10.020;2023-05-19T09:45:08;20.50;99.90
5743;DHT22;2896;53.500;10.020;2023-05-19T09:47:35;20.40;99.90
5743;DHT22;2896;53.500;10.020;2023-05-19T09:50:04;20.00;99.90
5743;DHT22;2896;53.500;10.020;2023-05-19T09:52:34;19.50;99.90
5743;DHT22;2896;53.500;10.020;2023-05-19T09:55:01;19.50;99.90
5743;DHT22;2896;53.500;10.020;2023-05-19T09:57:32;18.90;99.90
5743;DHT22;2896;53.500;10.020;2023-05-19T10:00:02;18.90;99.90
5743;DHT22;2896;53.500;10.020;2023-05-19T10:02:36;19.00;99.90
5743;DHT22;2896;53.500;10.020;2023-05-19T10:05:07;19.60;99.90
5743;DHT22;2896;53.500;10.020;2023-05-19T10:07:36;19.60;99.90
5743;DHT22;2896;53.500;10.020;2023-05-19T10:10:03;19.50;99.90
5743;DHT22;2896;53.500;10.020;2023-05-19T10:12:32;20.00;99.90
5743;DHT22;2896;53.500;10.020;2023-05-19T10:14:59;20.30;99.90
5743;DHT22;2896;53.500;10.020;2023-05-19T10:17:27;21.00;99.90
5743;DHT22;2896;53.500;10.020;2023-05-19T10:19:55;20.20;99.90
5743;DHT22;2896;53.500;10.020;2023-05-19T10:22:22;19.80;99.90
5743;DHT22;2896;53.500;10.020;2023-05-19T10:24:49;20.30;99.90
5743;DHT22;2896;53.500;10.020;2023-05-19T10:27:16;20.50;99.90
5743;DHT22;2896;53.500;10.020;2023-05-19T10:29:48;20.70;99.90
5743;DHT22;2896;53.500;10.020;2023-05-19T10:32:19;20.90;99.90
5743;DHT22;2896;53.500;10.020;2023-05-19T10:35:10;21.20;99.90
5743;DHT22;2896;53.500;10.020;2023-05-19T10:37:44;20.60;99.90
5743;DHT22;2896;53.500;10.020;2023-05-19T10:40:17;20.10;99.90
5743;DHT22;2896;53.500;10.020;2023-05-19T10:42:56;20.20;99.90
5743;DHT22;2896;53.500;10.020;2023-05-19T10:45:29;20.30;99.90
5743;DHT22;2896;53.500;10.020;2023-05-19T10:48:01;21.30;99.90
5743;DHT22;2896;53.500;10.020;2023-05-19T10:50:34;22.00;99.90
5743;DHT22;2896;53.500;10.020;2023-05-19T10:53:01;21.70;99.90
5743;DHT22;2896;53.500;10.020;2023-05-19T10:55:43;21.50;99.90
5743;DHT22;2896;53.500;10.020;2023-05-19T10:58:10;21.40;99.90
5743;DHT22;2896;53.500;10.020;2023-05-19T11:00:38;20.40;99.90
5743;DHT22;2896;53.500;10.020;2023-05-19T11:03:12;22.30;99.90
5743;DHT22;2896;53.500;10.020;2023-05-19T11:05:40;22.40;99.90
5743;DHT22;2896;53.500;10.020;2023-05-19T11:08:10;22.80;99.90
5743;DHT22;2896;53.500;10.020;2023-05-19T11:10:37;23.20;99.90
5743;DHT22;2896;53.500;10.020;2023-05-19T11:13:04;23.30;99.90
5743;DHT22;2896;53.500;10.020;2023-05-19T11:15:33;23.70;99.90
5743;DHT22;2896;53.500;10.020;2023-05-19T11:18:01;23.30;99.90
5743;DHT22;2896;53.500;10.020;2023-05-19T11:20:29;22.00;99.90
5743;DHT22;2896;53.500;10.020;2023-05-19T11:23:07;22.30;99.90
5743;DHT22;2896;53.500;10.020;2023-05-19T11:25:41;22.30;99.90
5743;DHT22;2896;53.500;10.020;2023-05-19T11:28:09;23.20;99.90
5743;DHT22;2896;53.500;10.020;2023-05-19T11:30:38;24.10;99.90
5743;DHT22;2896;53.500;10.020;2023-05-19T11:33:05;23.60;99.90
5743;DHT22;2896;53.500;10.020;2023-05-19T11:35:32;23.70;99.90
5743;DHT22;2896;53.500;10.020;2023-05-19T11:37:59;23.60;99.90
5743;DHT22;2896;53.500;10.020;2023-05-19T11:40:29;23.50;99.90
5743;DHT22;2896;53.500;10.020;2023-05-19T11:42:55;23.00;99.90
5743;DHT22;2896;53.500;10.020;2023-05-19T11:45:25;22.40;99.90
5743;DHT22;2896;53.500;10.020;2023-05-19T11:47:53;21.90;99.90
5743;DHT22;2896;53.500;10.020;2023-05-19T11:50:21;21.70;99.90
5743;DHT22;2896;53.500;10.020;2023-05-19T11:52:47;22.70;99.90
5743;DHT22;2896;53.500;10.020;2023-05-19T11:55:15;22.70;99.90
5743;DHT22;2896;53.500;10.020;2023-05-19T11:57:55;22.40;99.90
5743;DHT22;2896;53.500;10.020;2023-05-19T12:00:23;22.70;99.90
5743;DHT22;2896;53.500;10.020;2023-05-19T12:02:49;23.70;99.90
5743;DHT22;2896;53.500;10.020;2023-05-19T12:05:20;24.00;99.90
5743;DHT22;2896;53.500;10.020;2023-05-19T12:07:47;24.80;99.90
5743;DHT22;2896;53.500;10.020;2023-05-19T12:10:16;24.10;99.90
5743;DHT22;2896;53.500;10.020;2023-05-19T12:12:44;24.50;99.90
5743;DHT22;2896;53.500;10.020;2023-05-19T12:15:13;24.90;99.90
5743;DHT22;2896;53.500;10.020;2023-05-19T12:17:41;24.30;99.90
5743;DHT22;2896;53.500;10.020;2023-05-19T12:20:08;24.60;99.90
5743;DHT22;2896;53.500;10.020;2023-05-19T12:22:35;24.20;99.90
5743;DHT22;2896;53.500;10.020;2023-05-19T12:25:03;24.00;99.90
5743;DHT22;2896;53.500;10.020;2023-05-19T12:27:34;23.20;99.90
5743;DHT22;2896;53.500;10.020;2023-05-19T12:30:02;23.20;99.90
5743;DHT22;2896;53.500;10.020;2023-05-19T12:32:32;22.90;99.90
5743;DHT22;2896;53.500;10.020;2023-05-19T12:35:01;22.40;99.90
5743;DHT22;2896;53.500;10.020;2023-05-19T12:37:30;22.70;99.90
5743;DHT22;2896;53.500;10.020;2023-05-19T12:39:58;23.30;99.90
5743;DHT22;2896;53.500;10.020;2023-05-19T12:42:26;23.60;99.90
5743;DHT22;2896;53.500;10.020;2023-05-19T12:44:55;24.50;99.90
5743;DHT22;2896;53.500;10.020;2023-05-19T12:47:30;25.40;99.90
5743;DHT22;2896;53.500;10.020;2023-05-19T12:50:01;24.00;99.90
5743;DHT22;2896;53.500;10.020;2023-05-19T12:52:28;23.80;99.90
5743;DHT22;2896;53.500;10.020;2023-05-19T12:54:58;23.10;99.90
5743;DHT22;2896;53.500;10.020;2023-05-19T12:57:26;21.70;99.90
5743;DHT22;2896;53.500;10.020;2023-05-19T12:59:59;21.40;99.90
5743;DHT22;2896;53.500;10.020;2023-05-19T13:02:25;20.80;99.90
5743;DHT22;2896;53.500;10.020;2023-05-19T13:04:53;21.30;99.90
5743;DHT22;2896;53.500;10.020;2023-05-19T13:07:20;21.90;99.90
5743;DHT22;2896;53.500;10.020;2023-05-19T13:09:47;22.60;99.90
5743;DHT22;2896;53.500;10.020;2023-05-19T13:12:14;22.40;99.90
5743;DHT22;2896;53.500;10.020;2023-05-19T13:14:40;23.30;99.90
5743;DHT22;2896;53.500;10.020;2023-05-19T13:17:08;23.30;99.90
5743;DHT22;2896;53.500;10.020;2023-05-19T13:19:34;23.20;99.90
5743;DHT22;2896;53.500;10.020;2023-05-19T13:22:02;21.70;99.90
5743;DHT22;2896;53.500;10.020;2023-05-19T13:24:29;20.80;99.90
5743;DHT22;2896;53.500;10.020;2023-05-19T13:26:55;22.10;99.90
5743;DHT22;2896;53.500;10.020;2023-05-19T13:29:22;23.10;99.90
5743;DHT22;2896;53.500;10.020;2023-05-19T13:31:49;23.70;99.90
5743;DHT22;2896;53.500;10.020;2023-05-19T13:34:15;22.80;99.90
5743;DHT22;2896;53.500;10.020;2023-05-19T13:36:44;22.00;99.90
5743;DHT22;2896;53.500;10.020;2023-05-19T13:39:13;21.20;99.90
5743;DHT22;2896;53.500;10.020;2023-05-19T13:41:40;21.20;99.90
5743;DHT22;2896;53.500;10.020;2023-05-19T13:44:06;22.00;99.90
5743;DHT22;2896;53.500;10.020;2023-05-19T13:46:33;22.50;99.90
5743;DHT22;2896;53.500;10.020;2023-05-19T13:48:59;22.50;99.90
5743;DHT22;2896;53.500;10.020;2023-05-19T13:51:26;22.50;99.90
5743;DHT22;2896;53.500;10.020;2023-05-19T13:53:53;23.50;99.90
5743;DHT22;2896;53.500;10.020;2023-05-19T13:56:21;22.50;99.90
5743;DHT22;2896;53.500;10.020;2023-05-19T13:58:47;23.00;99.90
5743;DHT22;2896;53.500;10.020;2023-05-19T14:01:14;23.40;99.90
5743;DHT22;2896;53.500;10.020;2023-05-19T14:03:40;23.50;99.90
5743;DHT22;2896;53.500;10.020;2023-05-19T14:06:07;24.10;99.90
5743;DHT22;2896;53.500;10.020;2023-05-19T14:08:34;22.90;99.90
5743;DHT22;2896;53.500;10.020;2023-05-19T14:11:00;22.60;99.90
5743;DHT22;2896;53.500;10.020;2023-05-19T14:13:29;22.60;99.90
5743;DHT22;2896;53.500;10.020;2023-05-19T14:15:55;22.50;99.90
5743;DHT22;2896;53.500;10.020;2023-05-19T14:18:22;21.70;99.90
5743;DHT22;2896;53.500;10.020;2023-05-19T14:20:48;21.30;99.90
5743;DHT22;2896;53.500;10.020;2023-05-19T14:23:15;20.70;99.90
5743;DHT22;2896;53.500;10.020;2023-05-19T14:25:42;20.40;99.90
5743;DHT22;2896;53.500;10.020;2023-05-19T14:28:08;20.60;99.90
5743;DHT22;2896;53.500;10.020;2023-05-19T14:30:37;20.80;99.90
5743;DHT22;2896;53.500;10.020;2023-05-19T14:33:03;20.90;99.90
5743;DHT22;2896;53.500;10.020;2023-05-19T14:35:30;20.80;99.90
5743;DHT22;2896;53.500;10.020;2023-05-19T14:37:57;21.80;99.90
5743;DHT22;2896;53.500;10.020;2023-05-19T14:40:23;22.30;99.90
5743;DHT22;2896;53.500;10.020;2023-05-19T14:42:50;22.90;99.90
5743;DHT22;2896;53.500;10.020;2023-05-19T14:45:16;22.70;99.90
5743;DHT22;2896;53.500;10.020;2023-05-19T14:47:44;23.80;99.90
5743;DHT22;2896;53.500;10.020;2023-05-19T14:50:12;24.20;99.90
5743;DHT22;2896;53.500;10.020;2023-05-19T14:52:38;23.30;99.90
5743;DHT22;2896;53.500;10.020;2023-05-19T14:55:05;22.20;99.90
5743;DHT22;2896;53.500;10.020;2023-05-19T14:57:32;21.00;99.90
5743;DHT22;2896;53.500;10.020;2023-05-19T14:59:59;20.10;99.90
5743;DHT22;2896;53.500;10.020;2023-05-19T15:02:25;20.90;99.90
5743;DHT22;2896;53.500;10.020;2023-05-19T15:04:53;20.90;99.90
5743;DHT22;2896;53.500;10.020;2023-05-19T15:07:20;20.50;99.90
5743;DHT22;2896;53.500;10.020;2023-05-19T15:09:46;20.70;99.90
5743;DHT22;2896;53.500;10.020;2023-05-19T15:12:14;20.60;99.90
5743;DHT22;2896;53.500;10.020;2023-05-19T15:14:40;20.20;99.90
5743;DHT22;2896;53.500;10.020;2023-05-19T15:17:07;20.40;99.90
5743;DHT22;2896;53.500;10.020;2023-05-19T15:19:33;20.00;99.90
5743;DHT22;2896;53.500;10.020;2023-05-19T15:22:01;19.70;99.90
5743;DHT22;2896;53.500;10.020;2023-05-19T15:24:28;19.80;99.90
5743;DHT22;2896;53.500;10.020;2023-05-19T15:26:54;20.00;99.90
5743;DHT22;2896;53.500;10.020;2023-05-19T15:29:21;20.30;99.90
5743;DHT22;2896;53.500;10.020;2023-05-19T15:31:49;20.50;99.90
5743;DHT22;2896;53.500;10.020;2023-05-19T15:34:15;21.00;99.90
5743;DHT22;2896;53.500;10.020;2023-05-19T15:36:42;20.80;99.90
5743;DHT22;2896;53.500;10.020;2023-05-19T15:39:10;20.80;99.90
5743;DHT22;2896;53.500;10.020;2023-05-19T15:41:37;21.20;99.90
5743;DHT22;2896;53.500;10.020;2023-05-19T15:44:04;21.00;99.90
5743;DHT22;2896;53.500;10.020;2023-05-19T15:46:31;21.90;99.90
5743;DHT22;2896;53.500;10.020;2023-05-19T15:48:58;21.50;99.90
5743;DHT22;2896;53.500;10.020;2023-05-19T15:51:25;20.90;99.90
5743;DHT22;2896;53.500;10.020;2023-05-19T15:53:51;20.50;99.90
5743;DHT22;2896;53.500;10.020;2023-05-19T15:56:19;20.10;99.90
5743;DHT22;2896;53.500;10.020;2023-05-19T15:58:46;20.40;99.90
5743;DHT22;2896;53.500;10.020;2023-05-19T16:01:13;20.80;99.90
5743;DHT22;2896;53.500;10.020;2023-05-19T16:03:40;21.20;99.90